Portada
METAR-TAF:

METAR-TAF

Aeroports :

Chitose, Japó

latitud: 42-48N, longitud: 141-40E, altitud: 27 m

Observació

L'informe es va fer fa 38 minuts, a les 01:30 UTC
Vent 2 kt amb direcció variable
Temperatura 22°C
Humitat 83%
Pressió 1008 hPa
Visibilitat 10 km o més
Escasses núvols a una alçada de 1500 ft
Cel ennuvolat a una alçada de 2000 ft

METAR: RJCC 160130Z VRB02KT 9999 FEW015 BKN020 22/19 Q1008 RMK 1ST015 7CU020 A2977

Hora: 11:08 (02:08 UTC)

Pronòstic

L'informe es va fer fa 3 hores i 2 minuts, a les 23:06 UTC
Pronòstic vàlid del 16 a les 00 UTC al 17 a les 06 UTC
Vent 5 kt del Sud
Visibilitat 10 km o més
Escasses núvols a una alçada de 1500 ft
Cel ennuvolat a una alçada de 4000 ft
Evolucionant progressivament
l' 16 a les 07 UTC al 16 a les 09 UTC
Vent 13 kt del Nord/Nord-Oest

TAF: RJCC 152306Z 1600/1706 17005KT 9999 FEW015 BKN040 BECMG 1607/1609 34013KT

Observacions i pronòstics meteorològics de més de 4000 aeroports (METAR i TAF).

Les estacions disponibles són els punts grocs i vermells al mapa.

Posi el ratolí al punt desitjat per veure el nom de l'estació.

Feu clic per veure les observacions i els pronòstics meteorològics.

Per canviar el mapa: feu clic els botons verds amb una creu de color negre per apropar; al botó verd amb un guió per allunyar la imatge; o en les fletxes verdes per a mapes adjacents.


METAR-TAF: